Time;durP1;ratioP1;P1;durP2;ratioP2;P2;SDS_P1;SDS_P2;PMS_P1;PMS_P2;Temp;Humidity;BMP_temperature;BMP_pressure;BME280_temperature;BME280_humidity;BME280_pressure;Samples;Min_cycle;Max_cycle;Signal;HPM_P1;HPM_P2
2022/02/14 00:02:16;;;;;;;16.48;5.85;;;9.90;75.10;;;;;;5112712;28;20105;-87
2022/02/14 00:04:43;;;;;;;15.32;5.65;;;10.00;75.10;;;;;;5093120;28;20054;-86
2022/02/14 00:07:10;;;;;;;13.88;5.53;;;10.00;75.10;;;;;;5110746;28;20043;-88
2022/02/14 00:09:37;;;;;;;17.65;5.40;;;10.00;75.20;;;;;;5110125;28;20062;-88
2022/02/14 00:12:04;;;;;;;13.98;5.22;;;10.00;75.20;;;;;;5125174;27;20039;-88
2022/02/14 00:14:32;;;;;;;14.10;4.97;;;10.00;75.20;;;;;;5110559;28;20054;-87
2022/02/14 00:16:58;;;;;;;13.10;4.78;;;10.00;75.20;;;;;;5112587;28;20454;-86
2022/02/14 00:19:25;;;;;;;13.35;5.15;;;10.00;75.20;;;;;;5110330;28;20097;-88
2022/02/14 00:21:52;;;;;;;19.77;5.55;;;10.00;75.20;;;;;;5108360;28;20054;-87
2022/02/14 00:24:19;;;;;;;15.82;4.85;;;10.00;75.20;;;;;;5110055;28;20048;-86
2022/02/14 00:26:47;;;;;;;16.08;5.32;;;10.00;75.20;;;;;;5110658;28;20044;-87
2022/02/14 00:29:16;;;;;;;9.90;4.53;;;10.00;75.30;;;;;;5112505;28;20043;-89
2022/02/14 00:31:43;;;;;;;12.63;4.55;;;10.00;75.30;;;;;;5091047;28;20501;-86
2022/02/14 00:34:09;;;;;;;16.33;4.90;;;10.00;75.30;;;;;;5092315;28;20537;-88
2022/02/14 00:36:36;;;;;;;18.27;4.57;;;10.00;75.30;;;;;;5092514;28;20040;-87
2022/02/14 00:39:04;;;;;;;17.15;4.30;;;10.00;75.30;;;;;;5110143;28;20113;-86
2022/02/14 00:41:31;;;;;;;12.40;4.65;;;10.00;75.30;;;;;;5110357;28;20517;-86
2022/02/14 00:43:58;;;;;;;14.48;4.47;;;10.00;75.30;;;;;;5110322;28;20051;-87
2022/02/14 00:46:25;;;;;;;10.98;4.18;;;10.00;75.30;;;;;;5122390;27;20544;-86
2022/02/14 00:48:52;;;;;;;12.50;4.45;;;10.00;75.30;;;;;;5114222;28;20039;-86
2022/02/14 00:51:19;;;;;;;11.20;4.45;;;10.00;75.30;;;;;;5095021;28;20051;-85
2022/02/14 00:53:46;;;;;;;11.20;4.40;;;10.00;75.30;;;;;;5097905;28;20105;-87
2022/02/14 00:56:13;;;;;;;11.60;4.25;;;10.00;75.30;;;;;;5098285;28;20050;-88
2022/02/14 00:58:39;;;;;;;12.32;3.88;;;10.00;75.40;;;;;;5114117;28;20101;-88
2022/02/14 01:01:06;;;;;;;11.73;4.05;;;10.00;75.40;;;;;;5095814;28;20510;-88
2022/02/14 01:03:33;;;;;;;15.50;3.92;;;10.00;75.40;;;;;;5095751;28;20502;-86
2022/02/14 01:06:02;;;;;;;11.68;3.85;;;10.00;75.40;;;;;;5096061;28;20532;-87
2022/02/14 01:08:29;;;;;;;16.73;4.82;;;10.00;75.40;;;;;;5113960;28;20052;-86
2022/02/14 01:10:56;;;;;;;9.05;3.83;;;10.00;75.40;;;;;;5115945;28;20047;-87
2022/02/14 01:13:23;;;;;;;12.25;4.55;;;10.00;75.30;;;;;;5113814;28;20126;-86
2022/02/14 01:15:50;;;;;;;14.20;4.15;;;10.00;75.30;;;;;;5113768;28;20560;-86
2022/02/14 01:18:17;;;;;;;11.13;4.18;;;10.00;75.30;;;;;;5125219;27;20048;-87
2022/02/14 01:20:44;;;;;;;12.27;3.60;;;10.00;75.30;;;;;;5113605;28;20080;-87
2022/02/14 01:23:11;;;;;;;10.00;3.72;;;10.10;75.30;;;;;;5115285;28;20405;-86
2022/02/14 01:25:38;;;;;;;16.92;3.97;;;10.10;75.30;;;;;;5095619;28;20166;-87
2022/02/14 01:28:05;;;;;;;13.30;3.80;;;10.00;75.40;;;;;;5113393;28;20171;-87
2022/02/14 01:30:33;;;;;;;14.73;5.05;;;10.00;75.40;;;;;;5112098;28;20055;-88
2022/02/14 01:33:00;;;;;;;13.73;4.00;;;10.10;75.40;;;;;;5113376;28;20093;-88
2022/02/14 01:35:28;;;;;;;13.90;3.47;;;10.10;75.40;;;;;;5114010;28;20047;-87
2022/02/14 01:37:56;;;;;;;10.52;3.90;;;10.10;75.50;;;;;;5113180;28;20075;-86
2022/02/14 01:40:23;;;;;;;10.50;3.80;;;10.10;75.60;;;;;;5095060;28;20047;-87
2022/02/14 01:42:50;;;;;;;10.65;3.65;;;10.20;75.70;;;;;;5113082;28;20052;-87
2022/02/14 01:45:17;;;;;;;11.60;3.67;;;10.10;75.70;;;;;;5113386;28;20056;-86
2022/02/14 01:47:44;;;;;;;16.42;4.30;;;10.10;75.80;;;;;;5095280;28;20541;-87
2022/02/14 01:50:16;;;;;;;8.73;3.63;;;10.20;75.80;;;;;;5096748;28;20063;-87
2022/02/14 01:52:44;;;;;;;11.10;3.83;;;10.20;75.90;;;;;;5095502;28;20044;-86
2022/02/14 01:55:13;;;;;;;9.32;3.90;;;10.20;75.90;;;;;;5094820;28;20054;-87
2022/02/14 01:57:41;;;;;;;9.30;3.72;;;10.20;75.80;;;;;;5112262;28;20120;-86
2022/02/14 02:00:15;;;;;;;10.70;3.97;;;10.20;75.90;;;;;;5110992;28;20063;-88
2022/02/14 02:02:42;;;;;;;12.63;3.70;;;10.20;75.80;;;;;;5112761;28;20040;-86
2022/02/14 02:05:10;;;;;;;15.05;3.70;;;10.20;75.80;;;;;;5096538;28;20058;-88
2022/02/14 02:07:36;;;;;;;13.48;3.95;;;10.20;75.80;;;;;;5112632;28;20417;-88
2022/02/14 02:10:09;;;;;;;9.40;3.53;;;10.20;75.80;;;;;;5112602;28;20047;-87
2022/02/14 02:12:37;;;;;;;14.63;3.83;;;10.20;75.80;;;;;;5111150;28;20079;-87
2022/02/14 02:15:05;;;;;;;9.65;3.53;;;10.20;75.90;;;;;;5111202;28;20044;-87
2022/02/14 02:17:40;;;;;;;12.35;3.67;;;10.20;75.90;;;;;;5113190;28;20048;-86
2022/02/14 02:20:10;;;;;;;10.77;4.05;;;10.20;75.90;;;;;;5113500;28;20044;-87
2022/02/14 02:22:42;;;;;;;9.05;3.35;;;10.20;75.90;;;;;;5112320;28;20043;-86
2022/02/14 02:25:10;;;;;;;9.50;3.47;;;10.20;75.90;;;;;;5112340;28;20047;-85
2022/02/14 02:27:39;;;;;;;12.35;3.80;;;10.20;76.00;;;;;;5110754;28;20047;-86
2022/02/14 02:30:08;;;;;;;9.25;3.28;;;10.30;76.00;;;;;;5094336;28;20475;-86
2022/02/14 02:32:36;;;;;;;10.85;4.00;;;10.20;76.10;;;;;;5112173;28;20408;-87
2022/02/14 02:35:05;;;;;;;15.45;4.10;;;10.30;76.10;;;;;;5125330;27;20048;-86
2022/02/14 02:37:32;;;;;;;13.25;3.90;;;10.30;76.10;;;;;;5112043;28;20089;-87
2022/02/14 02:40:00;;;;;;;13.13;3.65;;;10.30;76.10;;;;;;5111997;28;20463;-86
2022/02/14 02:42:27;;;;;;;8.25;3.65;;;10.30;76.20;;;;;;5093814;28;20048;-86
2022/02/14 02:44:54;;;;;;;10.15;3.45;;;10.30;76.20;;;;;;5112057;28;20039;-87
2022/02/14 02:47:23;;;;;;;13.48;4.47;;;10.30;76.20;;;;;;5113717;28;20078;-86
2022/02/14 02:49:51;;;;;;;10.30;3.42;;;10.30;76.20;;;;;;5112713;28;20048;-88
2022/02/14 02:52:19;;;;;;;12.70;3.97;;;10.30;76.20;;;;;;5111819;28;20044;-87
2022/02/14 02:54:48;;;;;;;13.18;3.63;;;10.30;76.30;;;;;;5110556;28;20422;-88
2022/02/14 02:57:15;;;;;;;13.77;3.50;;;10.30;76.30;;;;;;5111847;28;20464;-87
2022/02/14 02:59:43;;;;;;;10.45;3.80;;;10.30;76.30;;;;;;5112563;28;20051;-86
2022/02/14 03:02:11;;;;;;;9.75;3.42;;;10.30;76.30;;;;;;5113837;28;20043;-87
2022/02/14 03:04:39;;;;;;;11.98;3.70;;;10.30;76.30;;;;;;5111315;28;20095;-86
2022/02/14 03:07:06;;;;;;;8.55;3.25;;;10.30;76.40;;;;;;5093358;28;20040;-87
2022/02/14 03:09:33;;;;;;;8.63;3.40;;;10.30;76.40;;;;;;5111238;28;20048;-86
2022/02/14 03:12:00;;;;;;;13.38;3.47;;;10.30;76.40;;;;;;5111415;28;20047;-86
2022/02/14 03:14:27;;;;;;;10.18;3.67;;;10.30;76.50;;;;;;5112318;28;20498;-86
2022/02/14 03:16:54;;;;;;;8.55;3.33;;;10.30;76.50;;;;;;5112735;28;20054;-87
2022/02/14 03:19:21;;;;;;;7.22;3.17;;;10.30;76.60;;;;;;5111174;28;20058;-87
2022/02/14 03:21:49;;;;;;;11.05;3.67;;;10.30;76.60;;;;;;5111103;28;20096;-86
2022/02/14 03:24:16;;;;;;;8.10;3.28;;;10.30;76.60;;;;;;5111391;28;20044;-86
2022/02/14 03:26:43;;;;;;;11.85;3.63;;;10.30;76.70;;;;;;5111220;28;20043;-86
2022/02/14 03:29:13;;;;;;;12.43;3.47;;;10.30;76.70;;;;;;5095306;28;20039;-86
2022/02/14 03:31:40;;;;;;;8.73;3.50;;;10.30;76.80;;;;;;5110804;28;20055;-86
2022/02/14 03:34:07;;;;;;;11.82;3.38;;;10.30;76.80;;;;;;5091665;28;20039;-86
2022/02/14 03:36:35;;;;;;;8.60;3.20;;;10.30;76.90;;;;;;5111021;28;20066;-87
2022/02/14 03:39:03;;;;;;;7.32;2.92;;;10.40;77.00;;;;;;5089611;28;20048;-86
2022/02/14 03:41:30;;;;;;;13.52;3.65;;;10.30;77.10;;;;;;5109520;28;20056;-86
2022/02/14 03:43:57;;;;;;;10.55;3.58;;;10.30;77.20;;;;;;5092842;28;20104;-87
2022/02/14 03:46:24;;;;;;;9.43;3.50;;;10.30;77.20;;;;;;5110529;28;20048;-87
2022/02/14 03:48:52;;;;;;;10.40;4.10;;;10.30;77.30;;;;;;5110615;28;20051;-86
2022/02/14 03:51:19;;;;;;;9.35;3.53;;;10.30;77.40;;;;;;5110941;28;20043;-86
2022/02/14 03:53:46;;;;;;;12.38;3.92;;;10.30;77.40;;;;;;5092157;28;20044;-86
2022/02/14 03:56:13;;;;;;;14.02;3.70;;;10.30;77.50;;;;;;5108410;28;20051;-89
2022/02/14 03:58:39;;;;;;;5.63;2.80;;;10.30;77.50;;;;;;5110677;28;20044;-87
2022/02/14 04:01:06;;;;;;;12.35;3.75;;;10.30;77.60;;;;;;5110083;28;20390;-89
2022/02/14 04:03:33;;;;;;;7.22;3.63;;;10.30;77.60;;;;;;5110532;28;20501;-87
2022/02/14 04:06:01;;;;;;;7.53;3.35;;;10.30;77.70;;;;;;5109411;28;20465;-87
2022/02/14 04:08:28;;;;;;;11.52;3.20;;;10.30;77.80;;;;;;5111237;28;20044;-87
2022/02/14 04:10:57;;;;;;;10.27;2.28;;;10.30;77.90;;;;;;5112251;28;20054;-87
2022/02/14 04:13:24;;;;;;;6.68;2.20;;;10.30;78.10;;;;;;5110527;28;20044;-86
2022/02/14 04:15:51;;;;;;;8.68;2.47;;;10.30;78.20;;;;;;5110138;28;20051;-86
2022/02/14 04:18:18;;;;;;;6.45;1.80;;;10.20;78.30;;;;;;5110605;28;20047;-86
2022/02/14 04:20:45;;;;;;;8.10;2.60;;;10.20;78.30;;;;;;5092867;28;20463;-86
2022/02/14 04:23:12;;;;;;;9.00;2.00;;;10.20;78.40;;;;;;5116627;28;20659;-86
2022/02/14 04:25:39;;;;;;;6.35;1.50;;;10.10;78.40;;;;;;5114710;28;20059;-88
2022/02/14 04:28:06;;;;;;;3.83;1.52;;;10.10;78.50;;;;;;5096787;28;20159;-88
2022/02/14 04:30:34;;;;;;;4.32;1.23;;;10.00;78.60;;;;;;5114288;28;20040;-87
2022/02/14 04:33:02;;;;;;;3.72;1.38;;;10.00;78.70;;;;;;5096510;28;20074;-87
2022/02/14 04:35:31;;;;;;;3.65;1.00;;;9.90;78.90;;;;;;5114917;28;20517;-87
2022/02/14 04:37:59;;;;;;;3.97;1.10;;;9.90;78.90;;;;;;5114644;28;20048;-86
2022/02/14 04:40:33;;;;;;;3.67;1.00;;;9.80;79.00;;;;;;5114268;28;20044;-86
2022/02/14 04:43:01;;;;;;;2.88;0.98;;;9.80;79.20;;;;;;5096087;28;20582;-87
2022/02/14 04:45:29;;;;;;;2.67;0.80;;;9.70;79.30;;;;;;5112710;28;20044;-86
2022/02/14 04:47:57;;;;;;;2.13;0.80;;;9.70;79.40;;;;;;5114553;28;20043;-86
2022/02/14 04:50:24;;;;;;;3.67;0.80;;;9.60;79.50;;;;;;5097340;28;20060;-88
2022/02/14 04:52:52;;;;;;;1.98;0.80;;;9.60;79.60;;;;;;5113176;28;20424;-88
2022/02/14 04:55:19;;;;;;;2.40;0.70;;;9.50;79.70;;;;;;5114024;28;20043;-87
2022/02/14 04:57:47;;;;;;;2.67;0.75;;;9.50;79.80;;;;;;5114054;28;20043;-87
2022/02/14 05:00:15;;;;;;;2.80;0.90;;;9.40;79.90;;;;;;5113834;28;20040;-87
2022/02/14 05:02:42;;;;;;;2.05;0.80;;;9.40;80.00;;;;;;5113989;28;20097;-87
2022/02/14 05:05:10;;;;;;;1.70;0.68;;;9.40;80.20;;;;;;5116161;28;20048;-87
2022/02/14 05:07:37;;;;;;;1.17;0.60;;;9.30;80.30;;;;;;5095808;28;20425;-86
2022/02/14 05:10:06;;;;;;;1.27;0.50;;;9.30;80.40;;;;;;5112006;28;20142;-86
2022/02/14 05:12:34;;;;;;;2.85;0.63;;;9.20;80.40;;;;;;5095703;28;20398;-88
2022/02/14 05:15:05;;;;;;;2.08;0.60;;;9.20;80.50;;;;;;5095803;28;20047;-87
2022/02/14 05:17:32;;;;;;;2.13;0.73;;;9.10;80.60;;;;;;5114160;28;20062;-87
2022/02/14 05:19:59;;;;;;;2.67;0.70;;;9.10;80.60;;;;;;5113887;28;20048;-86
2022/02/14 05:22:26;;;;;;;2.58;0.60;;;9.00;80.70;;;;;;5113358;28;20100;-86
2022/02/14 05:24:53;;;;;;;2.85;0.70;;;9.00;80.80;;;;;;5112364;28;20097;-87
2022/02/14 05:27:20;;;;;;;2.45;0.70;;;9.00;80.80;;;;;;5124871;27;20052;-86
2022/02/14 05:29:47;;;;;;;2.03;0.70;;;8.90;80.90;;;;;;5113743;28;20047;-86
2022/02/14 05:32:14;;;;;;;3.08;0.65;;;8.90;81.00;;;;;;5127019;27;20055;-86
2022/02/14 05:34:41;;;;;;;1.00;0.50;;;8.90;81.10;;;;;;5094327;28;20101;-85
2022/02/14 05:37:10;;;;;;;2.33;0.80;;;8.90;81.20;;;;;;5113274;28;20047;-85
2022/02/14 05:39:37;;;;;;;1.70;0.68;;;8.90;81.20;;;;;;5113326;28;20052;-86
2022/02/14 05:42:04;;;;;;;1.02;0.50;;;8.80;81.30;;;;;;5112781;28;20532;-86
2022/02/14 05:44:31;;;;;;;2.40;0.52;;;8.80;81.30;;;;;;5113339;28;20109;-86
2022/02/14 05:46:59;;;;;;;1.20;0.40;;;8.80;81.40;;;;;;5113275;28;20083;-86
2022/02/14 05:49:26;;;;;;;3.40;0.70;;;8.70;81.40;;;;;;5124329;27;20101;-86
2022/02/14 05:51:53;;;;;;;1.67;0.60;;;8.70;81.50;;;;;;5113050;28;20055;-86
2022/02/14 05:54:21;;;;;;;2.38;0.60;;;8.70;81.50;;;;;;5112941;28;20046;-86
2022/02/14 05:56:48;;;;;;;2.90;0.65;;;8.60;81.60;;;;;;5112902;28;20043;-87
2022/02/14 05:59:17;;;;;;;3.88;1.00;;;8.60;81.60;;;;;;5115185;28;20048;-86
2022/02/14 06:01:43;;;;;;;2.17;0.70;;;8.60;81.70;;;;;;5113242;28;20089;-86
2022/02/14 06:04:11;;;;;;;4.35;1.20;;;8.60;81.70;;;;;;5093491;28;20518;-86
2022/02/14 06:06:38;;;;;;;2.42;0.95;;;8.60;81.70;;;;;;5112757;28;20059;-85
2022/02/14 06:09:05;;;;;;;2.30;0.80;;;8.60;81.80;;;;;;5111428;28;20036;-85
2022/02/14 06:11:32;;;;;;;2.97;1.00;;;8.50;81.80;;;;;;5112483;28;20052;-85
2022/02/14 06:13:59;;;;;;;3.85;1.10;;;8.50;81.80;;;;;;5112658;28;20051;-85
2022/02/14 06:16:25;;;;;;;2.03;0.80;;;8.50;81.90;;;;;;5112846;28;20447;-86
2022/02/14 06:18:52;;;;;;;3.05;1.05;;;8.50;81.90;;;;;;5112068;28;20101;-86
2022/02/14 06:21:19;;;;;;;4.45;1.02;;;8.40;81.90;;;;;;5112584;27;20055;-86
2022/02/14 06:23:48;;;;;;;4.15;1.45;;;8.40;81.90;;;;;;5095620;28;20471;-86
2022/02/14 06:26:15;;;;;;;4.05;1.58;;;8.40;82.00;;;;;;5109493;28;20058;-85
2022/02/14 06:28:42;;;;;;;5.63;1.45;;;8.40;82.00;;;;;;5110919;28;20113;-85
2022/02/14 06:31:10;;;;;;;5.72;1.58;;;8.40;82.10;;;;;;5111614;28;20104;-85
2022/02/14 06:33:42;;;;;;;3.45;1.35;;;8.40;82.10;;;;;;5111897;28;20048;-85
2022/02/14 06:36:09;;;;;;;3.00;1.20;;;8.40;82.10;;;;;;5094007;28;20048;-85
2022/02/14 06:38:36;;;;;;;4.15;1.30;;;8.40;82.10;;;;;;5111577;28;20062;-86
2022/02/14 06:41:03;;;;;;;4.38;1.23;;;8.40;82.10;;;;;;5095665;28;20059;-86
2022/02/14 06:43:30;;;;;;;4.85;1.35;;;8.40;82.10;;;;;;5110275;28;20051;-85
2022/02/14 06:45:57;;;;;;;2.90;0.93;;;8.40;82.20;;;;;;5093220;28;20116;-86
2022/02/14 06:48:24;;;;;;;2.88;1.00;;;8.30;82.20;;;;;;5110214;28;20056;-87
2022/02/14 06:50:51;;;;;;;4.35;1.17;;;8.40;82.20;;;;;;5111549;28;20403;-85
2022/02/14 06:53:18;;;;;;;4.20;1.02;;;8.30;82.30;;;;;;5113071;28;20051;-85
2022/02/14 06:55:45;;;;;;;5.10;1.30;;;8.30;82.30;;;;;;5111698;28;20049;-86
2022/02/14 06:58:12;;;;;;;3.60;1.13;;;8.30;82.20;;;;;;5111359;28;20043;-85
2022/02/14 07:00:40;;;;;;;3.78;1.00;;;8.30;82.30;;;;;;5111042;28;20043;-86
2022/02/14 07:03:07;;;;;;;8.80;1.40;;;8.30;82.20;;;;;;5111283;28;20051;-86
2022/02/14 07:05:35;;;;;;;5.10;1.30;;;8.30;82.20;;;;;;5093529;28;20048;-85
2022/02/14 07:08:03;;;;;;;5.60;1.40;;;8.20;82.20;;;;;;5113061;28;20048;-86
2022/02/14 07:10:30;;;;;;;4.68;1.65;;;8.20;82.20;;;;;;5110638;28;20047;-85
2022/02/14 07:12:57;;;;;;;4.22;1.38;;;8.20;82.10;;;;;;5111251;28;20043;-86
2022/02/14 07:15:24;;;;;;;7.45;1.70;;;8.20;82.20;;;;;;5111067;28;20039;-85
2022/02/14 07:17:51;;;;;;;7.20;1.92;;;8.20;82.20;;;;;;5111168;28;20417;-86
2022/02/14 07:20:19;;;;;;;9.10;2.22;;;8.20;82.10;;;;;;5112602;28;20051;-86
2022/02/14 07:22:47;;;;;;;5.32;1.65;;;8.10;82.10;;;;;;5108781;28;20052;-86
2022/02/14 07:25:14;;;;;;;6.68;1.98;;;8.10;82.10;;;;;;5110403;28;20047;-85
2022/02/14 07:27:43;;;;;;;6.88;1.92;;;8.10;82.20;;;;;;5109456;28;20058;-85
2022/02/14 07:30:12;;;;;;;5.55;2.17;;;8.10;82.20;;;;;;5110727;28;20055;-84
2022/02/14 07:32:41;;;;;;;8.68;2.40;;;8.10;82.20;;;;;;5110903;28;20048;-85
2022/02/14 07:35:08;;;;;;;9.15;2.40;;;8.10;82.20;;;;;;5095174;28;20051;-85
2022/02/14 07:37:35;;;;;;;8.70;3.00;;;8.10;82.20;;;;;;5110362;28;20047;-84
2022/02/14 07:40:03;;;;;;;6.93;2.35;;;8.10;82.20;;;;;;5110524;28;20063;-85
2022/02/14 07:42:31;;;;;;;12.13;2.97;;;8.10;82.20;;;;;;5110494;28;20051;-85
2022/02/14 07:44:59;;;;;;;10.02;1.85;;;8.10;82.20;;;;;;5110330;28;20076;-85
2022/02/14 07:47:27;;;;;;;9.07;2.53;;;8.10;82.20;;;;;;5111636;28;20043;-86
2022/02/14 07:49:54;;;;;;;10.38;2.40;;;8.00;82.20;;;;;;5112043;28;20063;-86
2022/02/14 07:52:22;;;;;;;10.93;2.40;;;8.00;82.20;;;;;;5110008;28;20044;-85
2022/02/14 07:54:51;;;;;;;6.75;2.20;;;8.00;82.20;;;;;;5110494;28;20426;-86
2022/02/14 07:57:18;;;;;;;7.78;2.65;;;8.10;82.20;;;;;;5109816;28;20047;-85
2022/02/14 07:59:45;;;;;;;8.52;2.70;;;8.00;82.20;;;;;;5092995;28;20044;-85
2022/02/14 08:02:12;;;;;;;9.07;2.78;;;8.00;82.20;;;;;;5112233;28;20048;-86
2022/02/14 08:04:42;;;;;;;10.10;2.60;;;8.00;82.20;;;;;;5110470;28;20046;-85
2022/02/14 08:07:08;;;;;;;11.65;2.67;;;8.00;82.20;;;;;;5108412;28;20052;-85
2022/02/14 08:09:36;;;;;;;9.48;2.60;;;8.00;82.20;;;;;;5092465;28;20047;-85
2022/02/14 08:12:06;;;;;;;8.80;2.30;;;8.00;82.20;;;;;;5110556;28;20044;-85
2022/02/14 08:14:33;;;;;;;10.90;2.80;;;8.10;82.20;;;;;;5109941;28;20048;-85
2022/02/14 08:17:02;;;;;;;8.98;2.80;;;8.00;82.20;;;;;;5112498;28;20048;-85
2022/02/14 08:19:29;;;;;;;7.72;2.35;;;8.00;82.20;;;;;;5110324;28;20054;-85
2022/02/14 08:21:56;;;;;;;10.50;2.58;;;8.10;82.20;;;;;;5109335;28;20055;-86
2022/02/14 08:24:23;;;;;;;11.43;3.20;;;8.00;82.20;;;;;;5110100;28;20047;-87
2022/02/14 08:26:52;;;;;;;17.90;3.00;;;8.10;82.20;;;;;;5110494;28;20058;-87
2022/02/14 08:29:19;;;;;;;8.00;2.72;;;8.10;82.20;;;;;;5111721;28;20047;-87
2022/02/14 08:31:47;;;;;;;13.23;2.58;;;8.10;82.20;;;;;;5109395;28;20051;-86
2022/02/14 08:34:15;;;;;;;11.73;2.65;;;8.10;82.20;;;;;;5109756;28;20066;-86
2022/02/14 08:36:45;;;;;;;7.43;2.20;;;8.10;82.20;;;;;;5109672;28;20050;-86
2022/02/14 08:39:13;;;;;;;11.82;3.00;;;8.10;82.20;;;;;;5092292;28;20522;-85
2022/02/14 08:41:41;;;;;;;12.35;3.00;;;8.10;82.20;;;;;;5109633;28;20051;-86
2022/02/14 08:44:09;;;;;;;9.48;2.58;;;8.20;82.20;;;;;;5112411;28;20052;-85
2022/02/14 08:46:39;;;;;;;15.38;2.95;;;8.20;82.20;;;;;;5108745;28;20047;-85
2022/02/14 08:49:06;;;;;;;15.55;3.47;;;8.20;82.20;;;;;;5109853;28;20421;-88
2022/02/14 08:51:33;;;;;;;12.10;2.88;;;8.20;82.30;;;;;;5109848;28;20047;-87
2022/02/14 08:54:00;;;;;;;11.98;2.95;;;8.20;82.30;;;;;;5110213;28;20044;-86
2022/02/14 08:56:29;;;;;;;13.93;3.25;;;8.30;82.30;;;;;;5092910;28;20537;-86
2022/02/14 08:58:56;;;;;;;12.73;4.03;;;8.30;82.30;;;;;;5111883;28;20413;-85
2022/02/14 09:01:23;;;;;;;9.18;3.10;;;8.30;82.20;;;;;;5110118;28;20505;-84
2022/02/14 09:03:52;;;;;;;10.48;2.97;;;8.40;82.30;;;;;;5110139;28;20047;-86
2022/02/14 09:06:19;;;;;;;14.25;3.10;;;8.40;82.20;;;;;;5109775;28;20433;-84
2022/02/14 09:08:46;;;;;;;11.60;2.78;;;8.40;82.20;;;;;;5094404;28;20044;-85
2022/02/14 09:11:13;;;;;;;12.10;3.00;;;8.40;82.10;;;;;;5115970;28;20043;-85
2022/02/14 09:13:40;;;;;;;13.02;3.00;;;8.40;82.10;;;;;;5113818;28;20043;-84
2022/02/14 09:16:08;;;;;;;12.75;3.10;;;8.50;82.00;;;;;;5114866;27;20051;-84
2022/02/14 09:18:37;;;;;;;16.33;3.17;;;8.50;82.00;;;;;;5097499;28;20040;-85
2022/02/14 09:21:05;;;;;;;17.48;4.07;;;8.50;81.90;;;;;;5112546;28;20058;-84
2022/02/14 09:23:35;;;;;;;15.27;3.35;;;8.60;81.90;;;;;;5113070;28;20089;-85
2022/02/14 09:26:02;;;;;;;13.20;3.42;;;8.60;81.80;;;;;;5115519;28;20043;-86
2022/02/14 09:28:30;;;;;;;15.50;3.20;;;8.70;81.80;;;;;;5112837;28;20051;-85
2022/02/14 09:30:57;;;;;;;13.18;3.38;;;8.70;81.70;;;;;;5113124;28;20043;-84
2022/02/14 09:33:25;;;;;;;10.82;3.13;;;8.70;81.60;;;;;;5113168;28;20048;-84
2022/02/14 09:35:53;;;;;;;17.10;3.40;;;8.80;81.50;;;;;;5112683;28;20036;-84
2022/02/14 09:38:24;;;;;;;13.57;3.22;;;8.80;81.50;;;;;;5114472;28;20043;-84
2022/02/14 09:40:51;;;;;;;12.95;2.88;;;8.90;81.40;;;;;;5114102;28;20387;-84
2022/02/14 09:43:19;;;;;;;12.40;3.10;;;8.90;81.40;;;;;;5112550;28;20055;-84
2022/02/14 09:45:46;;;;;;;14.43;3.33;;;8.90;81.30;;;;;;5112744;28;20139;-85
2022/02/14 09:48:14;;;;;;;14.38;3.30;;;9.00;81.20;;;;;;5113030;28;20052;-84
2022/02/14 09:50:42;;;;;;;15.25;2.92;;;9.00;81.20;;;;;;5112049;28;20056;-84
2022/02/14 09:53:11;;;;;;;13.70;2.90;;;9.10;81.10;;;;;;5114561;28;20060;-84
2022/02/14 09:55:43;;;;;;;18.77;3.37;;;9.10;80.90;;;;;;5111397;28;20097;-86
2022/02/14 09:58:11;;;;;;;11.90;3.13;;;9.20;80.80;;;;;;5111577;28;20082;-86
2022/02/14 10:00:38;;;;;;;13.77;3.67;;;9.20;80.70;;;;;;5112817;28;20051;-87
2022/02/14 10:03:15;;;;;;;16.33;3.75;;;9.30;80.50;;;;;;5091002;28;20060;-86
2022/02/14 10:05:48;;;;;;;19.15;3.80;;;9.30;80.40;;;;;;5113028;28;20109;-86
2022/02/14 10:08:26;;;;;;;17.52;3.65;;;9.30;80.30;;;;;;5110683;28;20539;-86
2022/02/14 10:11:08;;;;;;;14.90;3.40;;;9.40;80.10;;;;;;5114137;28;20048;-86
2022/02/14 10:13:38;;;;;;;12.57;2.88;;;9.40;80.00;;;;;;5112976;28;20100;-87
2022/02/14 10:16:13;;;;;;;16.98;3.78;;;9.40;79.80;;;;;;5112608;28;20447;-86
2022/02/14 10:18:42;;;;;;;12.07;2.78;;;9.40;79.70;;;;;;5111749;28;20044;-87
2022/02/14 10:21:27;;;;;;;11.32;2.70;;;9.50;79.70;;;;;;5112611;28;20101;-87
2022/02/14 10:24:02;;;;;;;12.93;2.75;;;9.50;79.50;;;;;;5097412;28;20075;-87
2022/02/14 10:26:39;;;;;;;13.00;2.60;;;9.60;79.40;;;;;;5095203;28;20048;-87
2022/02/14 10:29:12;;;;;;;16.63;3.72;;;9.70;79.20;;;;;;5113429;28;20047;-86
2022/02/14 10:31:44;;;;;;;11.20;3.50;;;9.80;78.90;;;;;;5112242;28;20062;-85
2022/02/14 10:34:13;;;;;;;12.77;3.10;;;9.90;78.80;;;;;;5112045;28;20043;-85
2022/02/14 10:36:43;;;;;;;12.63;2.67;;;9.90;78.60;;;;;;5111090;28;20044;-86
2022/02/14 10:39:20;;;;;;;11.52;2.40;;;9.90;78.40;;;;;;5094214;28;20051;-86
2022/02/14 10:41:58;;;;;;;15.43;2.80;;;10.00;78.10;;;;;;5096069;28;20509;-86
2022/02/14 10:47:19;;;;;;;11.35;2.60;;;10.10;77.50;;;;;;5113856;28;20101;-87
2022/02/14 10:50:12;;;;;;;15.43;2.30;;;10.10;77.20;;;;;;5110894;28;20060;-88
2022/02/14 10:52:38;;;;;;;12.18;2.28;;;10.20;76.90;;;;;;5092676;28;20059;-88
2022/02/14 10:55:08;;;;;;;10.80;2.15;;;10.20;76.80;;;;;;5110631;28;20420;-88
2022/02/14 10:57:39;;;;;;;13.48;2.30;;;10.20;76.80;;;;;;5111822;28;20124;-87
2022/02/14 11:00:10;;;;;;;11.95;2.13;;;10.30;76.70;;;;;;5111755;28;20408;-89
2022/02/14 11:02:48;;;;;;;7.93;1.95;;;10.40;76.50;;;;;;5110828;28;20047;-88
2022/02/14 11:05:16;;;;;;;8.98;2.10;;;10.40;76.30;;;;;;5091458;28;20048;-88
2022/02/14 11:07:44;;;;;;;11.73;2.33;;;10.40;76.00;;;;;;5092596;28;20047;-89
2022/02/14 11:10:13;;;;;;;7.68;2.00;;;10.40;75.60;;;;;;5110144;28;20077;-88
2022/02/14 11:12:55;;;;;;;10.48;1.95;;;10.50;75.40;;;;;;5092188;28;20497;-88
2022/02/14 11:15:24;;;;;;;15.60;2.50;;;10.50;75.20;;;;;;5093657;28;20409;-87
2022/02/14 11:17:59;;;;;;;10.23;1.90;;;10.60;75.10;;;;;;5111626;28;20051;-87
2022/02/14 11:20:26;;;;;;;11.35;2.08;;;10.70;75.10;;;;;;5094424;28;20493;-89
2022/02/14 11:22:55;;;;;;;10.45;2.13;;;10.70;74.90;;;;;;5112690;28;20047;-88
2022/02/14 11:25:49;;;;;;;11.43;2.40;;;10.80;74.80;;;;;;5111020;28;20108;-87
2022/02/14 11:28:22;;;;;;;13.73;1.92;;;10.80;74.60;;;;;;5092025;28;20054;-88
2022/02/14 11:31:11;;;;;;;10.55;2.05;;;10.90;74.40;;;;;;5092648;28;20040;-87
2022/02/14 11:33:51;;;;;;;13.45;2.38;;;10.90;74.30;;;;;;5092949;28;20054;-88
2022/02/14 11:36:19;;;;;;;11.18;2.35;;;10.90;74.00;;;;;;5093097;28;20044;-88
2022/02/14 11:38:52;;;;;;;7.43;2.08;;;11.00;73.70;;;;;;5077199;28;20044;-88
2022/02/14 11:41:27;;;;;;;14.93;2.37;;;11.00;73.50;;;;;;5109140;28;20055;-87
2022/02/14 11:44:14;;;;;;;14.90;2.58;;;11.00;73.40;;;;;;5112458;28;20054;-88
2022/02/14 11:46:53;;;;;;;10.95;2.85;;;11.00;73.20;;;;;;5091753;28;20058;-87
2022/02/14 11:49:21;;;;;;;11.35;2.53;;;11.10;73.10;;;;;;5110906;28;20055;-87
2022/02/14 11:52:33;;;;;;;13.02;2.50;;;11.00;72.90;;;;;;5096052;28;20039;-87
2022/02/14 11:55:03;;;;;;;9.90;2.35;;;11.00;72.80;;;;;;5091484;28;20043;-87
2022/02/14 11:57:38;;;;;;;12.43;2.25;;;11.00;72.70;;;;;;5110818;28;20158;-87
2022/02/14 12:00:14;;;;;;;8.70;2.30;;;11.00;72.70;;;;;;5110555;28;20039;-88
2022/02/14 12:02:54;;;;;;;8.40;1.80;;;11.00;72.70;;;;;;5110852;28;20047;-87
2022/02/14 12:05:43;;;;;;;9.30;2.22;;;11.00;72.60;;;;;;5108888;28;20509;-87
2022/02/14 12:08:12;;;;;;;9.15;1.92;;;11.00;72.50;;;;;;5112941;28;20039;-87
2022/02/14 12:10:55;;;;;;;10.43;2.38;;;11.00;72.30;;;;;;5109306;28;20071;-87
2022/02/14 12:13:34;;;;;;;11.35;2.28;;;10.90;72.30;;;;;;5110176;28;20520;-85
2022/02/14 12:21:22;;;;;;;12.32;2.33;;;10.90;72.30;;;;;;5110603;28;20050;-88
2022/02/14 12:24:21;;;;;;;10.82;2.10;;;10.90;72.20;;;;;;5096876;28;20538;-88
2022/02/14 12:26:51;;;;;;;9.40;1.92;;;10.90;72.10;;;;;;5102654;28;20094;-88
2022/02/14 12:29:39;;;;;;;10.52;1.77;;;10.90;72.20;;;;;;5107907;28;20421;-88
2022/02/14 12:32:16;;;;;;;8.85;2.30;;;10.90;72.40;;;;;;5111143;28;20079;-87
2022/02/14 12:34:50;;;;;;;11.30;2.67;;;10.90;72.60;;;;;;5091263;28;20055;-86
2022/02/14 12:37:17;;;;;;;13.07;2.38;;;10.90;72.70;;;;;;5109979;28;20121;-87
2022/02/14 12:39:50;;;;;;;12.40;2.50;;;10.90;72.60;;;;;;5108723;28;20155;-87
2022/02/14 12:42:24;;;;;;;7.93;1.95;;;11.00;72.30;;;;;;5110588;28;20052;-87
2022/02/14 12:45:00;;;;;;;14.95;2.58;;;11.00;72.10;;;;;;5098840;28;20048;-87
2022/02/14 12:47:28;;;;;;;10.43;2.40;;;11.10;71.90;;;;;;5097128;28;20047;-87
2022/02/14 12:50:09;;;;;;;11.98;2.17;;;11.10;71.70;;;;;;5097234;28;20569;-87
2022/02/14 12:52:38;;;;;;;10.30;2.10;;;11.10;71.40;;;;;;5095912;28;20078;-89
2022/02/14 12:55:06;;;;;;;8.90;2.40;;;11.10;71.20;;;;;;5112830;28;20040;-87
2022/02/14 12:57:41;;;;;;;11.95;2.17;;;11.10;70.90;;;;;;5113354;28;20043;-88
2022/02/14 13:00:34;;;;;;;10.90;2.17;;;11.10;70.70;;;;;;5113777;28;20051;-87
2022/02/14 13:03:09;;;;;;;9.10;2.20;;;11.10;70.60;;;;;;5099679;28;20043;-87
2022/02/14 13:05:36;;;;;;;8.38;1.80;;;11.10;70.60;;;;;;5113475;28;20050;-87